Time;durP1;ratioP1;P1;durP2;ratioP2;P2;SDS_P1;SDS_P2;PMS_P1;PMS_P2;Temp;Humidity;BMP_temperature;BMP_pressure;BME280_temperature;BME280_humidity;BME280_pressure;Samples;Min_cycle;Max_cycle;Signal;HPM_P1;HPM_P2
2023/06/28 00:01:43;;;;;;;3.30;1.80;;;21.30;72.70;;;;;;5071501;28;20575;-56
2023/06/28 00:04:10;;;;;;;2.45;1.83;;;21.30;73.10;;;;;;5071159;28;20225;-57
2023/06/28 00:06:37;;;;;;;2.20;1.80;;;21.30;72.90;;;;;;5070752;28;20637;-56
2023/06/28 00:09:05;;;;;;;4.07;1.75;;;21.30;72.70;;;;;;5071124;28;20209;-56
2023/06/28 00:11:31;;;;;;;3.70;1.80;;;21.20;72.80;;;;;;5074976;28;20220;-55
2023/06/28 00:13:58;;;;;;;4.30;1.73;;;21.20;72.80;;;;;;5074608;28;20233;-57
2023/06/28 00:16:25;;;;;;;6.55;2.00;;;21.20;72.60;;;;;;5074578;28;20213;-56
2023/06/28 00:18:52;;;;;;;3.53;1.80;;;21.20;72.60;;;;;;5074811;28;20211;-55
2023/06/28 00:21:18;;;;;;;2.38;1.52;;;21.30;72.70;;;;;;5074420;28;20270;-57
2023/06/28 00:23:45;;;;;;;5.15;1.75;;;21.40;72.80;;;;;;5074334;28;20236;-56
2023/06/28 00:26:13;;;;;;;6.22;1.80;;;21.40;72.70;;;;;;5074220;28;20216;-56
2023/06/28 00:28:41;;;;;;;6.03;1.83;;;21.50;72.70;;;;;;5074458;28;20232;-57
2023/06/28 00:31:08;;;;;;;6.97;1.90;;;21.50;72.90;;;;;;5074471;28;20205;-56
2023/06/28 00:33:34;;;;;;;3.78;1.70;;;21.50;74.20;;;;;;5074249;28;20255;-57
2023/06/28 00:36:01;;;;;;;4.05;1.95;;;21.50;74.70;;;;;;5073729;28;20668;-56
2023/06/28 00:38:28;;;;;;;3.25;1.70;;;21.50;75.00;;;;;;5073907;28;20209;-55
2023/06/28 00:40:54;;;;;;;6.25;1.75;;;21.40;75.50;;;;;;5073902;28;20220;-58
2023/06/28 00:43:22;;;;;;;3.50;2.08;;;21.20;76.40;;;;;;5074057;28;20282;-57
2023/06/28 00:45:49;;;;;;;4.57;1.80;;;21.10;78.50;;;;;;5074033;28;20590;-57
2023/06/28 00:48:16;;;;;;;3.40;1.90;;;21.10;79.50;;;;;;5074363;28;20201;-56
2023/06/28 00:50:44;;;;;;;4.53;1.90;;;21.10;79.00;;;;;;5074437;28;20207;-57
2023/06/28 00:53:14;;;;;;;3.17;2.00;;;21.00;79.10;;;;;;5074367;28;20231;-58
2023/06/28 00:55:41;;;;;;;5.32;2.28;;;21.00;78.80;;;;;;5074110;28;20204;-56
2023/06/28 00:58:08;;;;;;;3.22;1.70;;;21.00;77.90;;;;;;5074124;28;20262;-56
2023/06/28 01:00:36;;;;;;;3.13;2.05;;;21.00;77.60;;;;;;5073617;28;20307;-55
2023/06/28 01:03:03;;;;;;;3.08;1.77;;;20.90;77.70;;;;;;5073597;28;20280;-55
2023/06/28 01:05:30;;;;;;;2.63;1.92;;;20.90;77.90;;;;;;5073636;28;20208;-57
2023/06/28 01:07:57;;;;;;;5.35;2.03;;;20.90;79.30;;;;;;5073699;28;20566;-55
2023/06/28 01:10:24;;;;;;;5.55;2.05;;;20.90;79.60;;;;;;5073650;28;20665;-57
2023/06/28 01:12:52;;;;;;;4.65;2.15;;;20.90;79.30;;;;;;5087879;22;20224;-66
2023/06/28 01:15:19;;;;;;;4.30;1.90;;;20.90;79.30;;;;;;5074407;28;20579;-66
2023/06/28 01:17:47;;;;;;;5.40;1.95;;;20.90;79.20;;;;;;5074152;28;20315;-65
2023/06/28 01:20:15;;;;;;;3.05;1.52;;;20.90;79.20;;;;;;5073968;28;20233;-66
2023/06/28 01:22:43;;;;;;;4.30;1.92;;;20.90;79.70;;;;;;5074271;28;20240;-66
2023/06/28 01:25:12;;;;;;;3.08;1.90;;;20.80;81.00;;;;;;5074102;28;20216;-65
2023/06/28 01:27:44;;;;;;;4.45;1.80;;;20.80;82.10;;;;;;5073890;28;20225;-66
2023/06/28 01:30:14;;;;;;;3.25;1.90;;;20.90;83.50;;;;;;5074388;28;20201;-64
2023/06/28 01:32:41;;;;;;;4.75;2.08;;;20.80;83.10;;;;;;5074707;28;20221;-66
2023/06/28 01:35:09;;;;;;;2.75;2.03;;;20.70;82.10;;;;;;5074263;28;20216;-65
2023/06/28 01:37:36;;;;;;;5.55;2.03;;;20.60;83.70;;;;;;5073838;28;20291;-65
2023/06/28 01:40:05;;;;;;;4.03;2.00;;;20.40;84.80;;;;;;5073994;28;20251;-66
2023/06/28 01:42:34;;;;;;;5.22;1.70;;;20.30;88.60;;;;;;5073803;28;20236;-66
2023/06/28 01:45:01;;;;;;;3.60;2.05;;;20.20;89.00;;;;;;5073589;28;20209;-65
2023/06/28 01:47:27;;;;;;;3.20;1.65;;;20.10;90.00;;;;;;5073788;28;20219;-66
2023/06/28 01:49:55;;;;;;;5.43;1.92;;;20.00;90.60;;;;;;5073651;28;20224;-63
2023/06/28 01:52:22;;;;;;;7.68;2.47;;;19.90;90.10;;;;;;5073923;28;20216;-65
2023/06/28 01:54:49;;;;;;;6.57;1.98;;;19.80;91.00;;;;;;5074103;28;20332;-65
2023/06/28 01:57:16;;;;;;;5.13;2.15;;;19.70;91.90;;;;;;5076505;28;20205;-66
2023/06/28 01:59:44;;;;;;;4.70;2.25;;;19.70;92.80;;;;;;5078486;28;20211;-66
2023/06/28 02:02:11;;;;;;;5.75;2.17;;;19.70;93.10;;;;;;5077835;28;20224;-66
2023/06/28 02:04:37;;;;;;;5.50;1.88;;;19.60;93.30;;;;;;5078030;28;20671;-66
2023/06/28 02:07:05;;;;;;;4.93;2.00;;;19.40;94.90;;;;;;5077701;28;20619;-66
2023/06/28 02:09:31;;;;;;;4.13;2.20;;;19.30;94.50;;;;;;5074064;28;20254;-66
2023/06/28 02:11:58;;;;;;;5.80;2.00;;;19.10;97.10;;;;;;5073102;28;20201;-66
2023/06/28 02:14:25;;;;;;;4.20;1.98;;;19.10;98.10;;;;;;5073365;28;20232;-66
2023/06/28 02:16:54;;;;;;;5.13;1.98;;;19.10;97.80;;;;;;5072811;28;20209;-66
2023/06/28 02:19:21;;;;;;;4.13;2.10;;;18.90;99.80;;;;;;5073017;28;20229;-65
2023/06/28 02:21:48;;;;;;;6.68;2.38;;;18.90;99.90;;;;;;5072909;28;20240;-66
2023/06/28 02:24:15;;;;;;;5.22;1.98;;;18.80;99.90;;;;;;5072579;28;20282;-66
2023/06/28 02:26:42;;;;;;;5.65;2.15;;;18.90;99.90;;;;;;5072490;28;20204;-66
2023/06/28 02:29:08;;;;;;;3.72;2.00;;;18.80;99.90;;;;;;5072886;28;20213;-66
2023/06/28 02:31:35;;;;;;;3.28;1.92;;;18.70;99.90;;;;;;5072094;28;20208;-66
2023/06/28 02:34:03;;;;;;;4.55;2.20;;;18.70;99.90;;;;;;5072585;28;20235;-66
2023/06/28 02:36:30;;;;;;;4.15;2.13;;;18.70;99.90;;;;;;5072278;28;20233;-66
2023/06/28 02:38:56;;;;;;;6.20;2.10;;;18.70;99.90;;;;;;5072513;28;20212;-66
2023/06/28 02:41:23;;;;;;;4.72;2.65;;;18.80;99.90;;;;;;5072535;28;20228;-66
2023/06/28 02:43:50;;;;;;;5.97;2.20;;;18.70;99.90;;;;;;5072382;28;20251;-65
2023/06/28 02:46:17;;;;;;;5.20;2.10;;;18.80;99.90;;;;;;5072337;28;20235;-66
2023/06/28 02:48:43;;;;;;;4.53;2.10;;;18.70;99.90;;;;;;5072219;28;20711;-66
2023/06/28 02:51:12;;;;;;;3.67;2.08;;;18.70;99.90;;;;;;5072103;28;20201;-65
2023/06/28 02:53:38;;;;;;;5.07;2.20;;;18.70;99.90;;;;;;5071854;28;20613;-66
2023/06/28 02:56:05;;;;;;;3.78;2.00;;;18.80;99.90;;;;;;5072105;28;20205;-65
2023/06/28 02:58:32;;;;;;;5.45;2.03;;;18.90;99.90;;;;;;5072539;28;20205;-66
2023/06/28 03:00:58;;;;;;;5.05;2.30;;;18.80;99.90;;;;;;5071948;28;20282;-66
2023/06/28 03:03:25;;;;;;;4.13;1.95;;;18.70;99.90;;;;;;5071750;28;20221;-66
2023/06/28 03:05:52;;;;;;;3.72;2.10;;;18.70;99.90;;;;;;5071647;28;20637;-66
2023/06/28 03:08:20;;;;;;;3.78;2.20;;;18.60;99.90;;;;;;5071824;28;20286;-66
2023/06/28 03:10:47;;;;;;;5.35;2.22;;;18.70;99.90;;;;;;5071808;28;20201;-65
2023/06/28 03:13:13;;;;;;;3.22;2.00;;;18.70;99.90;;;;;;5071730;28;20240;-66
2023/06/28 03:15:40;;;;;;;4.80;2.22;;;18.80;99.90;;;;;;5071910;28;20509;-65
2023/06/28 03:18:07;;;;;;;8.35;2.30;;;18.80;99.90;;;;;;5071744;28;20209;-66
2023/06/28 03:20:34;;;;;;;6.75;1.90;;;18.80;99.90;;;;;;5071751;28;20291;-65
2023/06/28 03:23:02;;;;;;;3.00;1.92;;;18.90;99.90;;;;;;5071616;28;20723;-65
2023/06/28 03:25:31;;;;;;;2.88;2.03;;;18.90;99.90;;;;;;5071909;28;20266;-67
2023/06/28 03:27:58;;;;;;;3.15;1.80;;;18.90;99.90;;;;;;5071639;28;20616;-66
2023/06/28 03:30:25;;;;;;;4.47;2.40;;;18.90;99.90;;;;;;5072088;28;20687;-65
2023/06/28 03:32:51;;;;;;;4.80;2.47;;;18.80;99.90;;;;;;5071469;28;20722;-66
2023/06/28 03:35:18;;;;;;;6.90;2.40;;;18.70;99.90;;;;;;5071511;28;20205;-66
2023/06/28 03:37:50;;;;;;;2.72;2.00;;;18.70;99.90;;;;;;5071517;28;20437;-66
2023/06/28 03:40:17;;;;;;;6.05;2.25;;;18.60;99.90;;;;;;5071807;28;20260;-65
2023/06/28 03:42:45;;;;;;;3.92;2.20;;;18.60;99.90;;;;;;5071458;28;20225;-66
2023/06/28 03:45:12;;;;;;;3.50;1.90;;;18.60;99.90;;;;;;5071585;28;20201;-66
2023/06/28 03:47:39;;;;;;;3.10;1.90;;;18.60;99.90;;;;;;5071368;28;20204;-66
2023/06/28 03:50:06;;;;;;;3.97;2.20;;;18.60;99.90;;;;;;5071332;28;20579;-65
2023/06/28 03:52:33;;;;;;;4.78;2.10;;;18.60;99.90;;;;;;5071587;28;20258;-66
2023/06/28 03:55:00;;;;;;;3.83;1.90;;;18.70;99.90;;;;;;5071313;28;20208;-66
2023/06/28 03:57:26;;;;;;;6.15;1.92;;;18.70;99.90;;;;;;5071131;28;20208;-66
2023/06/28 03:59:54;;;;;;;2.58;2.05;;;18.70;99.90;;;;;;5071442;28;20308;-68
2023/06/28 04:02:21;;;;;;;4.55;2.42;;;18.70;99.90;;;;;;5070960;28;20227;-66
2023/06/28 04:04:48;;;;;;;4.40;2.42;;;18.80;99.90;;;;;;5071465;28;20208;-65
2023/06/28 04:07:15;;;;;;;4.32;1.98;;;18.90;99.90;;;;;;5071364;28;20208;-65
2023/06/28 04:09:43;;;;;;;4.50;1.80;;;19.00;99.90;;;;;;5071768;28;20204;-66
2023/06/28 04:12:10;;;;;;;3.53;2.03;;;19.10;99.90;;;;;;5071527;28;20209;-67
2023/06/28 04:14:37;;;;;;;3.88;2.15;;;19.10;99.90;;;;;;5071313;28;20260;-66
2023/06/28 04:17:05;;;;;;;3.28;2.20;;;19.20;99.90;;;;;;5070948;28;20201;-67
2023/06/28 04:19:31;;;;;;;3.55;2.03;;;19.30;99.90;;;;;;5071347;28;20205;-66
2023/06/28 04:21:58;;;;;;;3.22;1.92;;;19.40;99.90;;;;;;5071236;28;20311;-66
2023/06/28 04:24:25;;;;;;;11.75;2.15;;;19.50;99.90;;;;;;5071517;28;20229;-66
2023/06/28 04:26:52;;;;;;;4.18;2.03;;;19.40;99.90;;;;;;5070880;28;20205;-66
2023/06/28 04:29:18;;;;;;;5.70;2.38;;;19.40;99.90;;;;;;5071307;28;20627;-66
2023/06/28 04:31:45;;;;;;;4.38;1.88;;;19.40;99.90;;;;;;5071405;28;20200;-66
2023/06/28 04:34:13;;;;;;;5.10;2.05;;;19.40;99.90;;;;;;5072485;28;20282;-66
2023/06/28 04:36:40;;;;;;;4.47;2.15;;;19.30;99.90;;;;;;5077658;28;20258;-66
2023/06/28 04:39:07;;;;;;;8.65;2.40;;;19.20;99.90;;;;;;5079166;28;20271;-65
2023/06/28 04:41:34;;;;;;;7.93;2.17;;;19.10;99.90;;;;;;5081894;28;20252;-65
2023/06/28 04:44:01;;;;;;;4.88;2.17;;;19.10;99.90;;;;;;5084693;28;20229;-65
2023/06/28 04:46:28;;;;;;;5.03;1.90;;;19.30;99.90;;;;;;5084554;28;20208;-66
2023/06/28 04:48:56;;;;;;;5.18;2.22;;;19.30;99.90;;;;;;5083626;28;20695;-65
2023/06/28 04:51:25;;;;;;;6.38;2.15;;;19.30;99.90;;;;;;5072705;28;20201;-65
2023/06/28 04:53:52;;;;;;;5.07;1.98;;;19.40;99.90;;;;;;5070900;28;20638;-65
2023/06/28 04:56:18;;;;;;;5.07;2.30;;;19.40;99.90;;;;;;5073706;28;20653;-65
2023/06/28 04:58:45;;;;;;;6.00;1.73;;;19.50;99.90;;;;;;5074563;28;20205;-65
2023/06/28 05:01:12;;;;;;;3.72;2.13;;;19.50;99.90;;;;;;5074637;28;20282;-66
2023/06/28 05:03:39;;;;;;;4.72;2.10;;;19.50;99.90;;;;;;5074430;28;20232;-66
2023/06/28 05:06:06;;;;;;;5.75;2.28;;;19.60;99.90;;;;;;5073873;28;20325;-65
2023/06/28 05:08:35;;;;;;;2.83;1.98;;;19.70;99.90;;;;;;5074145;28;20296;-66
2023/06/28 05:11:03;;;;;;;6.07;1.88;;;19.80;99.90;;;;;;5073991;28;20316;-66
2023/06/28 05:13:30;;;;;;;4.68;2.20;;;19.90;99.90;;;;;;5074088;28;20243;-65
2023/06/28 05:15:57;;;;;;;3.42;2.17;;;20.00;99.90;;;;;;5073732;28;20209;-67
2023/06/28 05:18:23;;;;;;;6.47;2.67;;;20.00;99.90;;;;;;5074007;28;20204;-65
2023/06/28 05:20:50;;;;;;;3.70;2.20;;;20.00;99.90;;;;;;5074112;28;20274;-66
2023/06/28 05:23:18;;;;;;;4.53;2.45;;;20.00;99.90;;;;;;5074166;28;20704;-67
2023/06/28 05:25:47;;;;;;;3.22;2.10;;;19.90;99.90;;;;;;5073710;28;20212;-66
2023/06/28 05:28:14;;;;;;;4.63;2.35;;;20.00;99.90;;;;;;5074085;28;20311;-66
2023/06/28 05:30:43;;;;;;;4.80;2.30;;;19.90;99.90;;;;;;5073957;28;20227;-66
2023/06/28 05:33:10;;;;;;;5.25;2.25;;;20.10;99.90;;;;;;5073595;28;20225;-67
2023/06/28 05:35:37;;;;;;;4.97;2.33;;;20.20;99.90;;;;;;5073579;28;20220;-66
2023/06/28 05:38:05;;;;;;;5.00;1.98;;;20.20;99.90;;;;;;5073466;28;20241;-66
2023/06/28 05:40:33;;;;;;;5.63;2.08;;;20.30;99.90;;;;;;5073202;28;20653;-65
2023/06/28 05:43:01;;;;;;;3.72;2.20;;;20.30;99.90;;;;;;5073207;28;20751;-66
2023/06/28 05:45:29;;;;;;;2.75;2.20;;;20.40;99.90;;;;;;5073168;28;20211;-65
2023/06/28 05:47:58;;;;;;;4.82;2.00;;;20.30;99.90;;;;;;5073501;28;20596;-65
2023/06/28 05:50:24;;;;;;;5.53;2.53;;;20.40;99.90;;;;;;5073535;28;20212;-66
2023/06/28 05:52:51;;;;;;;7.00;2.50;;;20.50;99.90;;;;;;5073281;28;20713;-66
2023/06/28 05:55:18;;;;;;;4.15;2.17;;;20.60;99.90;;;;;;5073472;28;20286;-67
2023/06/28 05:57:45;;;;;;;4.07;2.00;;;20.70;99.90;;;;;;5073370;28;20204;-66
2023/06/28 06:00:15;;;;;;;3.65;2.17;;;20.80;99.90;;;;;;5075693;28;20209;-67
2023/06/28 06:02:42;;;;;;;6.22;2.42;;;20.80;99.80;;;;;;5075764;28;20274;-67
2023/06/28 06:05:13;;;;;;;3.28;2.08;;;20.90;99.70;;;;;;5075896;28;20209;-67
2023/06/28 06:07:40;;;;;;;4.95;2.22;;;20.80;99.90;;;;;;5074692;28;20244;-66
2023/06/28 06:10:08;;;;;;;3.72;2.10;;;20.60;99.90;;;;;;5073336;28;20626;-65
2023/06/28 06:12:35;;;;;;;5.70;3.20;;;20.70;99.90;;;;;;5073422;28;20251;-65
2023/06/28 06:15:02;;;;;;;5.93;2.45;;;20.80;99.90;;;;;;5073302;28;20208;-67
2023/06/28 06:17:30;;;;;;;4.65;2.38;;;20.70;99.90;;;;;;5073893;28;20673;-66
2023/06/28 06:19:57;;;;;;;3.30;2.03;;;20.80;99.90;;;;;;5073177;28;20209;-65
2023/06/28 06:22:24;;;;;;;5.60;2.70;;;20.90;99.90;;;;;;5073380;28;20606;-66
2023/06/28 06:24:51;;;;;;;3.47;1.83;;;20.90;99.80;;;;;;5073400;28;20224;-66
2023/06/28 06:27:17;;;;;;;4.28;2.05;;;20.90;99.80;;;;;;5072540;28;20213;-65
2023/06/28 06:29:44;;;;;;;5.65;1.70;;;20.90;99.40;;;;;;5072759;28;20209;-66
2023/06/28 06:32:11;;;;;;;4.65;2.08;;;20.90;99.00;;;;;;5072414;28;20197;-66
2023/06/28 06:34:39;;;;;;;4.35;2.00;;;20.90;99.10;;;;;;5073058;28;20229;-65
2023/06/28 06:37:11;;;;;;;5.10;2.10;;;20.90;99.20;;;;;;5073170;28;20590;-65
2023/06/28 06:39:38;;;;;;;5.13;2.20;;;20.90;99.30;;;;;;5073555;28;20533;-67
2023/06/28 06:42:05;;;;;;;2.88;2.15;;;21.00;99.40;;;;;;5073298;28;20229;-67
2023/06/28 06:44:32;;;;;;;5.43;2.45;;;21.10;99.30;;;;;;5072785;28;20235;-67
2023/06/28 06:46:59;;;;;;;6.28;2.53;;;21.10;99.20;;;;;;5072238;28;20299;-66
2023/06/28 06:49:26;;;;;;;4.45;2.22;;;21.20;98.80;;;;;;5072516;28;20702;-65
2023/06/28 06:51:54;;;;;;;4.93;2.20;;;21.30;98.70;;;;;;5073299;28;20208;-69
2023/06/28 06:54:21;;;;;;;5.97;2.28;;;21.40;98.40;;;;;;5072936;28;20236;-68
2023/06/28 06:56:48;;;;;;;4.05;2.80;;;21.50;98.20;;;;;;5073663;28;20616;-66
2023/06/28 06:59:16;;;;;;;4.45;1.90;;;21.50;98.10;;;;;;5072787;28;20205;-63
2023/06/28 07:01:43;;;;;;;5.78;2.40;;;21.70;98.10;;;;;;5072340;28;20288;-67
2023/06/28 07:04:11;;;;;;;3.72;2.28;;;21.90;97.80;;;;;;5072291;28;20311;-66
2023/06/28 07:06:37;;;;;;;6.78;2.33;;;22.00;97.50;;;;;;5072197;28;20209;-66
2023/06/28 07:09:06;;;;;;;4.28;2.40;;;22.10;97.30;;;;;;5068030;28;20529;-67
2023/06/28 07:11:33;;;;;;;5.75;2.67;;;22.30;97.00;;;;;;5073417;28;20216;-65
2023/06/28 07:13:59;;;;;;;4.32;2.17;;;22.40;96.70;;;;;;5095049;22;20220;-60
2023/06/28 07:16:26;;;;;;;5.00;2.33;;;22.40;96.30;;;;;;5070789;28;20205;-61
2023/06/28 07:18:54;;;;;;;2.90;2.42;;;22.60;95.80;;;;;;5070903;28;20687;-61
2023/06/28 07:21:20;;;;;;;7.68;2.28;;;22.60;95.60;;;;;;5071226;28;20291;-58
2023/06/28 07:23:47;;;;;;;4.90;2.28;;;22.50;95.80;;;;;;5071225;28;20229;-58
2023/06/28 07:26:15;;;;;;;6.40;2.00;;;22.60;95.70;;;;;;5071219;28;20521;-57
2023/06/28 07:28:42;;;;;;;6.93;2.22;;;22.60;95.50;;;;;;5071193;28;20217;-57
2023/06/28 07:31:09;;;;;;;5.13;2.30;;;22.70;95.40;;;;;;5071943;28;20204;-57
2023/06/28 07:33:36;;;;;;;5.70;2.50;;;22.70;95.20;;;;;;5071096;28;20224;-59
2023/06/28 07:36:03;;;;;;;4.78;2.20;;;22.80;95.10;;;;;;5071138;28;20213;-59
2023/06/28 07:38:30;;;;;;;3.63;1.98;;;22.80;94.70;;;;;;5071313;28;20209;-58
2023/06/28 07:40:56;;;;;;;3.78;2.20;;;23.00;94.20;;;;;;5070620;28;20207;-60
2023/06/28 07:43:24;;;;;;;7.00;2.58;;;23.10;93.80;;;;;;5070321;28;20229;-58
2023/06/28 07:45:52;;;;;;;5.15;2.45;;;23.10;93.70;;;;;;5066973;28;20201;-58
2023/06/28 07:48:18;;;;;;;3.22;2.20;;;23.10;93.60;;;;;;5071023;28;20201;-57
2023/06/28 07:50:47;;;;;;;5.13;2.33;;;23.20;93.20;;;;;;5071011;28;20525;-58
2023/06/28 07:53:13;;;;;;;5.15;2.65;;;23.30;93.20;;;;;;5071020;28;20304;-60
2023/06/28 07:55:40;;;;;;;4.80;2.35;;;23.40;92.80;;;;;;5070421;28;20209;-59
2023/06/28 07:58:07;;;;;;;5.35;2.33;;;23.60;92.20;;;;;;5070644;28;20652;-59
2023/06/28 08:00:35;;;;;;;3.03;2.05;;;23.80;91.80;;;;;;5071058;28;20609;-58
2023/06/28 08:03:02;;;;;;;6.03;2.03;;;24.10;91.50;;;;;;5071436;28;20240;-59
2023/06/28 08:05:29;;;;;;;5.25;2.40;;;24.30;90.30;;;;;;5070760;28;20209;-61
2023/06/28 08:07:56;;;;;;;8.27;2.25;;;24.60;90.00;;;;;;5070574;28;20212;-63
2023/06/28 08:10:23;;;;;;;4.80;2.53;;;24.80;88.00;;;;;;5070174;28;20209;-61
2023/06/28 08:12:50;;;;;;;5.43;2.17;;;24.70;87.70;;;;;;5070590;28;20200;-60
2023/06/28 08:15:18;;;;;;;4.72;2.30;;;24.50;87.70;;;;;;5070780;28;20605;-61
2023/06/28 08:17:47;;;;;;;4.90;2.30;;;24.60;87.20;;;;;;5070032;28;20266;-61
2023/06/28 08:20:13;;;;;;;3.33;2.20;;;25.10;85.30;;;;;;5070008;28;20692;-61
2023/06/28 08:22:41;;;;;;;4.78;1.92;;;25.70;82.80;;;;;;5069601;28;20290;-59
2023/06/28 08:25:08;;;;;;;4.40;1.98;;;26.30;80.00;;;;;;5070022;28;20201;-62
2023/06/28 08:27:34;;;;;;;3.25;2.00;;;26.80;77.60;;;;;;5069867;28;20201;-60
2023/06/28 08:30:01;;;;;;;5.97;1.95;;;27.30;74.50;;;;;;5068108;28;20258;-62
2023/06/28 08:32:28;;;;;;;6.68;2.40;;;27.90;71.80;;;;;;5072983;28;20589;-61
2023/06/28 08:34:56;;;;;;;3.85;1.75;;;28.50;68.80;;;;;;5073540;28;20224;-60
2023/06/28 08:37:23;;;;;;;5.90;1.95;;;28.90;66.40;;;;;;5073635;28;20232;-61
2023/06/28 08:39:50;;;;;;;5.00;1.70;;;29.40;64.80;;;;;;5074415;28;20209;-61
2023/06/28 08:42:18;;;;;;;3.40;1.80;;;30.00;62.70;;;;;;5073928;28;20254;-60
2023/06/28 08:44:47;;;;;;;5.50;1.95;;;30.70;60.50;;;;;;5074206;28;20224;-59
2023/06/28 08:47:14;;;;;;;6.53;2.17;;;31.50;59.10;;;;;;5073581;28;20254;-60
2023/06/28 08:49:41;;;;;;;3.15;1.90;;;32.10;55.80;;;;;;5075419;28;20690;-60
2023/06/28 08:52:10;;;;;;;3.45;1.80;;;32.20;55.60;;;;;;5074566;28;20212;-62
2023/06/28 08:54:38;;;;;;;5.80;1.98;;;32.00;54.50;;;;;;5073827;28;20254;-60
2023/06/28 08:57:05;;;;;;;6.00;1.90;;;32.00;53.30;;;;;;5073565;28;20211;-60
2023/06/28 08:59:33;;;;;;;3.42;1.80;;;32.10;54.20;;;;;;5073759;28;20246;-61
2023/06/28 09:02:01;;;;;;;3.63;1.85;;;32.20;53.40;;;;;;5073898;28;20201;-59
2023/06/28 09:04:28;;;;;;;3.42;1.83;;;32.40;52.70;;;;;;5073332;28;20271;-60
2023/06/28 09:06:56;;;;;;;6.13;1.90;;;32.60;51.80;;;;;;5073558;28;20292;-60
2023/06/28 09:09:25;;;;;;;4.45;1.83;;;32.90;49.60;;;;;;5074134;28;20208;-60
2023/06/28 09:11:52;;;;;;;3.40;1.70;;;32.70;48.80;;;;;;5073799;28;20743;-60
2023/06/28 09:14:19;;;;;;;7.20;1.90;;;32.10;49.40;;;;;;5073489;28;20233;-61
2023/06/28 09:16:46;;;;;;;4.28;2.58;;;31.50;50.80;;;;;;5073435;28;20209;-59
2023/06/28 09:19:13;;;;;;;4.90;2.10;;;31.00;51.70;;;;;;5073365;28;20610;-60
2023/06/28 09:21:41;;;;;;;5.88;2.00;;;30.40;54.30;;;;;;5073536;28;20277;-60
2023/06/28 09:24:11;;;;;;;5.25;2.28;;;29.90;54.80;;;;;;5073635;28;20236;-59
2023/06/28 09:26:42;;;;;;;7.28;2.58;;;29.40;56.10;;;;;;5072735;28;20205;-61
2023/06/28 09:29:12;;;;;;;3.92;2.20;;;29.10;57.00;;;;;;5074434;28;20296;-62
2023/06/28 09:31:41;;;;;;;5.85;2.50;;;28.70;57.10;;;;;;5074332;28;20205;-63
2023/06/28 09:34:07;;;;;;;5.47;2.53;;;28.30;58.10;;;;;;5073624;28;20225;-62
2023/06/28 09:36:37;;;;;;;3.83;1.90;;;28.00;59.10;;;;;;5073710;28;20270;-63
2023/06/28 09:39:04;;;;;;;5.55;2.58;;;28.20;59.10;;;;;;5074454;28;20205;-65
2023/06/28 09:41:43;;;;;;;5.70;1.95;;;28.60;57.80;;;;;;5074403;28;20236;-64
2023/06/28 09:44:10;;;;;;;6.43;2.08;;;29.00;56.90;;;;;;5073311;28;20670;-63
2023/06/28 09:46:43;;;;;;;5.85;2.17;;;29.00;55.60;;;;;;5073071;28;20216;-62
2023/06/28 09:49:19;;;;;;;4.38;1.80;;;28.80;56.10;;;;;;5073596;28;20288;-60
2023/06/28 09:51:54;;;;;;;5.25;1.88;;;28.40;56.70;;;;;;5073287;28;20209;-60
2023/06/28 09:54:21;;;;;;;9.85;2.00;;;28.20;57.40;;;;;;5072692;28;20225;-60
2023/06/28 09:56:54;;;;;;;3.72;2.00;;;27.90;57.60;;;;;;5072631;28;20213;-61
2023/06/28 09:59:24;;;;;;;3.85;1.75;;;27.70;58.20;;;;;;5072761;28;20733;-59
2023/06/28 10:01:52;;;;;;;4.72;2.00;;;27.50;58.70;;;;;;5073157;28;20216;-59
2023/06/28 10:04:20;;;;;;;6.72;2.40;;;27.50;58.70;;;;;;5072635;28;20645;-59
2023/06/28 10:06:48;;;;;;;4.13;2.35;;;27.30;58.80;;;;;;5072360;28;20220;-59
2023/06/28 10:09:16;;;;;;;8.23;1.95;;;27.20;59.40;;;;;;5073398;28;20209;-61
2023/06/28 10:11:45;;;;;;;4.50;2.03;;;27.20;59.80;;;;;;5072820;28;20262;-62
2023/06/28 10:14:16;;;;;;;5.82;2.28;;;27.40;59.10;;;;;;5072409;28;20267;-59
2023/06/28 10:16:45;;;;;;;4.75;2.33;;;27.50;58.70;;;;;;5071138;28;20220;-60
2023/06/28 10:19:12;;;;;;;3.47;2.10;;;27.60;58.80;;;;;;5071751;28;20625;-62
2023/06/28 10:21:40;;;;;;;3.08;2.10;;;27.80;58.90;;;;;;5072111;28;20208;-61
2023/06/28 10:24:08;;;;;;;4.63;2.33;;;28.00;58.70;;;;;;5072509;28;20255;-59
2023/06/28 10:26:35;;;;;;;6.53;1.90;;;28.30;58.30;;;;;;5071746;28;20207;-60
2023/06/28 10:29:03;;;;;;;7.07;2.20;;;28.60;57.10;;;;;;5070841;28;20216;-60
2023/06/28 10:31:31;;;;;;;4.35;2.20;;;29.00;56.10;;;;;;5071007;28;20214;-61
2023/06/28 10:33:59;;;;;;;4.78;2.05;;;29.20;56.30;;;;;;5072017;28;20274;-64
2023/06/28 10:36:26;;;;;;;5.50;2.00;;;29.30;55.60;;;;;;5071903;28;20583;-60
2023/06/28 10:38:53;;;;;;;5.38;2.42;;;29.30;54.90;;;;;;5072119;28;20209;-62
2023/06/28 10:41:21;;;;;;;3.38;1.48;;;29.10;55.60;;;;;;5072441;28;20213;-58
2023/06/28 10:43:50;;;;;;;5.32;1.98;;;28.80;55.30;;;;;;5072409;28;20711;-59
2023/06/28 10:46:24;;;;;;;5.78;2.00;;;28.70;55.30;;;;;;5072987;28;20728;-58
2023/06/28 10:48:54;;;;;;;5.32;1.70;;;28.50;55.00;;;;;;5073382;28;20215;-61
2023/06/28 10:51:22;;;;;;;4.53;1.60;;;28.30;55.60;;;;;;5073239;28;20672;-60
2023/06/28 10:53:55;;;;;;;4.55;1.95;;;28.10;55.60;;;;;;5071656;28;20316;-60
2023/06/28 10:56:22;;;;;;;3.58;1.92;;;28.10;56.00;;;;;;5071693;28;20200;-58
2023/06/28 10:58:56;;;;;;;5.72;1.90;;;28.30;56.10;;;;;;5072005;28;20209;-58
2023/06/28 11:01:33;;;;;;;3.45;1.58;;;28.30;56.20;;;;;;5070674;28;20193;-61
2023/06/28 11:04:14;;;;;;;5.43;1.90;;;28.50;56.20;;;;;;5071675;28;20236;-60
2023/06/28 11:06:41;;;;;;;3.15;1.50;;;28.70;56.00;;;;;;5072478;28;20216;-63
2023/06/28 11:09:14;;;;;;;2.65;1.95;;;29.00;55.60;;;;;;5072855;28;20205;-61
2023/06/28 11:11:52;;;;;;;7.78;2.00;;;29.30;54.80;;;;;;5071550;28;20208;-62
2023/06/28 11:14:22;;;;;;;4.65;1.80;;;29.60;54.50;;;;;;5071517;28;20277;-60
2023/06/28 11:16:49;;;;;;;5.78;2.30;;;29.60;54.30;;;;;;5070755;28;20204;-60
2023/06/28 11:19:22;;;;;;;5.53;1.90;;;29.60;54.20;;;;;;5071267;28;20231;-60
2023/06/28 11:21:55;;;;;;;5.95;2.10;;;29.60;54.10;;;;;;5070670;28;20224;-63
2023/06/28 11:24:26;;;;;;;5.50;2.08;;;29.60;53.80;;;;;;5071416;28;20236;-61
2023/06/28 11:26:53;;;;;;;5.30;2.17;;;29.40;54.10;;;;;;5071488;28;20213;-58
2023/06/28 11:29:21;;;;;;;6.20;2.08;;;29.50;54.20;;;;;;5071509;28;20292;-62
2023/06/28 11:31:49;;;;;;;3.63;1.70;;;29.60;54.50;;;;;;5071509;28;20284;-60
2023/06/28 11:34:18;;;;;;;5.70;2.00;;;29.50;54.20;;;;;;5070901;28;20307;-60
2023/06/28 11:36:47;;;;;;;5.40;1.80;;;29.10;54.50;;;;;;5071163;28;20266;-61
2023/06/28 11:39:18;;;;;;;5.13;1.95;;;28.80;55.90;;;;;;5071486;28;20250;-62
2023/06/28 11:41:45;;;;;;;3.65;1.73;;;28.60;55.30;;;;;;5072004;28;20205;-60
2023/06/28 11:44:13;;;;;;;3.25;1.48;;;28.50;55.90;;;;;;5071562;28;20653;-60
2023/06/28 11:46:40;;;;;;;3.15;1.60;;;28.60;55.10;;;;;;5072350;28;20211;-62
2023/06/28 11:49:08;;;;;;;4.35;1.73;;;28.80;54.30;;;;;;5071019;28;20592;-61
2023/06/28 11:51:36;;;;;;;3.15;1.42;;;28.90;54.40;;;;;;5071137;28;20204;-59
2023/06/28 11:54:06;;;;;;;6.55;1.60;;;28.80;54.80;;;;;;5071221;28;20644;-60
2023/06/28 11:56:34;;;;;;;5.07;1.58;;;28.90;54.60;;;;;;5070514;28;20698;-61
2023/06/28 11:59:12;;;;;;;7.30;1.95;;;29.10;54.10;;;;;;5070708;28;20641;-59
2023/06/28 12:01:39;;;;;;;4.90;1.75;;;29.30;54.10;;;;;;5070882;28;20250;-58
2023/06/28 12:04:14;;;;;;;3.40;1.58;;;29.10;54.50;;;;;;5072413;28;20282;-60
2023/06/28 12:06:42;;;;;;;4.70;1.45;;;28.70;55.00;;;;;;5077337;28;20208;-59
2023/06/28 12:09:18;;;;;;;3.45;1.40;;;28.40;55.30;;;;;;5077521;28;20234;-59
2023/06/28 12:11:51;;;;;;;3.70;1.60;;;28.40;55.80;;;;;;5077517;28;20300;-59
2023/06/28 12:14:19;;;;;;;2.70;1.40;;;28.50;55.00;;;;;;5077683;28;20319;-60
2023/06/28 12:16:46;;;;;;;3.45;1.30;;;28.80;54.60;;;;;;5077180;28;20208;-60
2023/06/28 12:19:16;;;;;;;4.28;1.40;;;29.00;54.50;;;;;;5077124;28;20204;-60
2023/06/28 12:21:44;;;;;;;2.28;1.55;;;29.20;54.60;;;;;;5076778;28;20307;-60
2023/06/28 12:24:13;;;;;;;4.07;1.30;;;29.20;54.00;;;;;;5076939;28;20225;-59
2023/06/28 12:26:40;;;;;;;3.22;1.20;;;29.20;53.10;;;;;;5076681;28;20564;-60
2023/06/28 12:29:07;;;;;;;2.03;1.33;;;28.90;52.80;;;;;;5077432;28;20212;-58
2023/06/28 12:31:41;;;;;;;6.72;1.75;;;28.80;53.80;;;;;;5077153;28;20249;-58
2023/06/28 12:34:08;;;;;;;5.25;1.80;;;28.80;54.30;;;;;;5076025;28;20295;-58
2023/06/28 12:36:35;;;;;;;4.72;1.52;;;29.00;53.80;;;;;;5076648;28;20292;-58
2023/06/28 12:39:03;;;;;;;13.60;11.65;;;29.00;53.20;;;;;;5077073;28;20209;-57
2023/06/28 12:41:30;;;;;;;4.50;1.45;;;29.10;53.20;;;;;;5077417;28;20247;-57
2023/06/28 12:43:58;;;;;;;4.05;1.13;;;29.10;53.00;;;;;;5077314;28;20641;-58
2023/06/28 12:46:24;;;;;;;2.88;1.17;;;29.20;52.60;;;;;;5077183;28;20208;-58
2023/06/28 12:48:54;;;;;;;3.30;1.20;;;29.30;52.70;;;;;;5077213;28;20200;-59